sensor_id;sensor_type;location;lat;lon;timestamp;temperature;humidity
29849;DHT22;16728;50.832;5.590;2023-05-10T00:01:52;14.50;99.90
29849;DHT22;16728;50.832;5.590;2023-05-10T00:04:54;14.50;99.90
29849;DHT22;16728;50.832;5.590;2023-05-10T00:07:56;14.50;99.90
29849;DHT22;16728;50.832;5.590;2023-05-10T00:10:58;14.50;99.90
29849;DHT22;16728;50.832;5.590;2023-05-10T00:14:00;14.40;99.90
29849;DHT22;16728;50.832;5.590;2023-05-10T00:17:02;14.40;99.90
29849;DHT22;16728;50.832;5.590;2023-05-10T00:20:05;14.40;99.90
29849;DHT22;16728;50.832;5.590;2023-05-10T00:23:07;14.40;99.90
29849;DHT22;16728;50.832;5.590;2023-05-10T00:26:10;14.40;99.90
29849;DHT22;16728;50.832;5.590;2023-05-10T00:29:12;14.40;99.90
29849;DHT22;16728;50.832;5.590;2023-05-10T00:32:20;14.40;99.90
29849;DHT22;16728;50.832;5.590;2023-05-10T00:35:22;14.40;99.90
29849;DHT22;16728;50.832;5.590;2023-05-10T00:38:25;14.40;99.90
29849;DHT22;16728;50.832;5.590;2023-05-10T00:41:27;14.30;99.90
29849;DHT22;16728;50.832;5.590;2023-05-10T00:44:30;14.40;99.90
29849;DHT22;16728;50.832;5.590;2023-05-10T00:47:39;14.40;99.90
29849;DHT22;16728;50.832;5.590;2023-05-10T00:50:41;14.30;99.90
29849;DHT22;16728;50.832;5.590;2023-05-10T00:53:45;14.30;99.90
29849;DHT22;16728;50.832;5.590;2023-05-10T00:56:48;14.40;99.90
29849;DHT22;16728;50.832;5.590;2023-05-10T00:59:51;14.40;99.90
29849;DHT22;16728;50.832;5.590;2023-05-10T01:02:54;14.40;99.90
29849;DHT22;16728;50.832;5.590;2023-05-10T01:05:56;14.40;99.90
29849;DHT22;16728;50.832;5.590;2023-05-10T01:09:00;14.40;99.90
29849;DHT22;16728;50.832;5.590;2023-05-10T01:12:02;14.30;99.90
29849;DHT22;16728;50.832;5.590;2023-05-10T01:15:10;14.30;99.90
29849;DHT22;16728;50.832;5.590;2023-05-10T01:18:13;14.30;99.90
29849;DHT22;16728;50.832;5.590;2023-05-10T01:21:38;14.30;99.90
29849;DHT22;16728;50.832;5.590;2023-05-10T01:32:03;14.30;99.90
29849;DHT22;16728;50.832;5.590;2023-05-10T01:38:47;14.30;99.90
29849;DHT22;16728;50.832;5.590;2023-05-10T01:42:03;14.30;99.90
29849;DHT22;16728;50.832;5.590;2023-05-10T01:45:27;14.20;99.90
29849;DHT22;16728;50.832;5.590;2023-05-10T01:48:32;14.20;99.90
29849;DHT22;16728;50.832;5.590;2023-05-10T01:51:42;14.20;99.90
29849;DHT22;16728;50.832;5.590;2023-05-10T01:54:55;14.20;99.90
29849;DHT22;16728;50.832;5.590;2023-05-10T01:58:07;14.20;99.90
29849;DHT22;16728;50.832;5.590;2023-05-10T02:01:10;14.20;99.90
29849;DHT22;16728;50.832;5.590;2023-05-10T02:04:16;14.20;99.90
29849;DHT22;16728;50.832;5.590;2023-05-10T02:07:21;14.20;99.90
29849;DHT22;16728;50.832;5.590;2023-05-10T02:10:24;14.20;99.90
29849;DHT22;16728;50.832;5.590;2023-05-10T02:13:27;14.20;99.90
29849;DHT22;16728;50.832;5.590;2023-05-10T02:16:31;14.10;99.90
29849;DHT22;16728;50.832;5.590;2023-05-10T02:19:34;14.10;99.90
29849;DHT22;16728;50.832;5.590;2023-05-10T02:22:38;14.10;99.90
29849;DHT22;16728;50.832;5.590;2023-05-10T02:25:43;14.10;99.90
29849;DHT22;16728;50.832;5.590;2023-05-10T02:28:45;14.10;99.90
29849;DHT22;16728;50.832;5.590;2023-05-10T02:31:51;14.10;99.90
29849;DHT22;16728;50.832;5.590;2023-05-10T02:34:54;14.10;99.90
29849;DHT22;16728;50.832;5.590;2023-05-10T02:37:58;14.10;99.90
29849;DHT22;16728;50.832;5.590;2023-05-10T02:41:01;14.10;99.90
29849;DHT22;16728;50.832;5.590;2023-05-10T02:44:06;14.10;99.90
29849;DHT22;16728;50.832;5.590;2023-05-10T02:47:09;14.10;99.90
29849;DHT22;16728;50.832;5.590;2023-05-10T02:50:11;14.00;99.90
29849;DHT22;16728;50.832;5.590;2023-05-10T02:53:19;14.00;99.90
29849;DHT22;16728;50.832;5.590;2023-05-10T02:56:31;14.00;99.90
29849;DHT22;16728;50.832;5.590;2023-05-10T02:59:34;14.00;99.90
29849;DHT22;16728;50.832;5.590;2023-05-10T03:02:41;14.00;99.90
29849;DHT22;16728;50.832;5.590;2023-05-10T03:05:43;14.10;99.90
29849;DHT22;16728;50.832;5.590;2023-05-10T03:08:45;14.10;99.90
29849;DHT22;16728;50.832;5.590;2023-05-10T03:11:56;14.10;99.90
29849;DHT22;16728;50.832;5.590;2023-05-10T03:15:25;14.10;99.90
29849;DHT22;16728;50.832;5.590;2023-05-10T03:19:06;14.10;99.90
29849;DHT22;16728;50.832;5.590;2023-05-10T03:22:14;14.00;99.90
29849;DHT22;16728;50.832;5.590;2023-05-10T03:25:21;14.00;99.90
29849;DHT22;16728;50.832;5.590;2023-05-10T03:28:25;14.00;99.90
29849;DHT22;16728;50.832;5.590;2023-05-10T03:31:27;14.00;99.90
29849;DHT22;16728;50.832;5.590;2023-05-10T03:34:30;14.00;99.90
29849;DHT22;16728;50.832;5.590;2023-05-10T03:37:33;14.00;99.90
29849;DHT22;16728;50.832;5.590;2023-05-10T03:40:40;14.00;99.90
29849;DHT22;16728;50.832;5.590;2023-05-10T03:43:42;14.00;99.90
29849;DHT22;16728;50.832;5.590;2023-05-10T03:46:50;14.00;99.90
29849;DHT22;16728;50.832;5.590;2023-05-10T03:49:52;14.00;99.90
29849;DHT22;16728;50.832;5.590;2023-05-10T03:52:54;14.10;99.90
29849;DHT22;16728;50.832;5.590;2023-05-10T03:55:56;14.00;99.90
29849;DHT22;16728;50.832;5.590;2023-05-10T03:59:04;14.00;99.90
29849;DHT22;16728;50.832;5.590;2023-05-10T04:02:09;14.00;99.90
29849;DHT22;16728;50.832;5.590;2023-05-10T04:05:11;14.00;99.90
29849;DHT22;16728;50.832;5.590;2023-05-10T04:08:13;14.00;99.90
29849;DHT22;16728;50.832;5.590;2023-05-10T04:11:21;14.00;99.90
29849;DHT22;16728;50.832;5.590;2023-05-10T04:14:23;14.00;99.90
29849;DHT22;16728;50.832;5.590;2023-05-10T04:17:25;14.00;99.90
29849;DHT22;16728;50.832;5.590;2023-05-10T04:20:28;14.00;99.90
29849;DHT22;16728;50.832;5.590;2023-05-10T04:23:30;14.00;99.90
29849;DHT22;16728;50.832;5.590;2023-05-10T04:26:32;14.00;99.90
29849;DHT22;16728;50.832;5.590;2023-05-10T04:29:35;14.00;99.90
29849;DHT22;16728;50.832;5.590;2023-05-10T04:32:37;14.00;99.90
29849;DHT22;16728;50.832;5.590;2023-05-10T04:35:39;14.00;99.90
29849;DHT22;16728;50.832;5.590;2023-05-10T04:38:41;14.00;99.90
29849;DHT22;16728;50.832;5.590;2023-05-10T04:41:44;14.00;99.90
29849;DHT22;16728;50.832;5.590;2023-05-10T04:44:52;14.00;99.90
29849;DHT22;16728;50.832;5.590;2023-05-10T04:47:54;14.00;99.90
29849;DHT22;16728;50.832;5.590;2023-05-10T04:50:57;14.00;99.90
29849;DHT22;16728;50.832;5.590;2023-05-10T04:53:59;14.00;99.90
29849;DHT22;16728;50.832;5.590;2023-05-10T04:57:07;13.90;99.90
29849;DHT22;16728;50.832;5.590;2023-05-10T05:00:10;14.00;99.90
29849;DHT22;16728;50.832;5.590;2023-05-10T05:03:12;14.00;99.90
29849;DHT22;16728;50.832;5.590;2023-05-10T05:06:21;14.00;99.90
29849;DHT22;16728;50.832;5.590;2023-05-10T05:09:23;14.00;99.90
29849;DHT22;16728;50.832;5.590;2023-05-10T05:12:24;14.00;99.90
29849;DHT22;16728;50.832;5.590;2023-05-10T05:15:26;13.90;99.90
29849;DHT22;16728;50.832;5.590;2023-05-10T05:18:29;13.90;99.90
29849;DHT22;16728;50.832;5.590;2023-05-10T05:21:31;13.90;99.90
29849;DHT22;16728;50.832;5.590;2023-05-10T05:24:37;13.90;99.90
29849;DHT22;16728;50.832;5.590;2023-05-10T05:27:39;13.90;99.90
29849;DHT22;16728;50.832;5.590;2023-05-10T05:30:42;13.90;99.90
29849;DHT22;16728;50.832;5.590;2023-05-10T05:33:44;13.90;99.90
29849;DHT22;16728;50.832;5.590;2023-05-10T05:36:47;13.90;99.90
29849;DHT22;16728;50.832;5.590;2023-05-10T05:39:49;13.90;99.90
29849;DHT22;16728;50.832;5.590;2023-05-10T05:42:54;13.90;99.90
29849;DHT22;16728;50.832;5.590;2023-05-10T05:45:56;13.90;99.90
29849;DHT22;16728;50.832;5.590;2023-05-10T05:48:59;13.90;99.90
29849;DHT22;16728;50.832;5.590;2023-05-10T05:52:02;13.90;99.90
29849;DHT22;16728;50.832;5.590;2023-05-10T05:55:09;13.90;99.90
29849;DHT22;16728;50.832;5.590;2023-05-10T05:58:11;13.80;99.90
29849;DHT22;16728;50.832;5.590;2023-05-10T06:01:17;13.90;99.90
29849;DHT22;16728;50.832;5.590;2023-05-10T06:04:19;13.90;99.90
29849;DHT22;16728;50.832;5.590;2023-05-10T06:07:21;14.00;99.90
29849;DHT22;16728;50.832;5.590;2023-05-10T06:10:23;14.00;99.90
29849;DHT22;16728;50.832;5.590;2023-05-10T06:13:29;14.00;99.90
29849;DHT22;16728;50.832;5.590;2023-05-10T06:16:34;13.90;99.90
29849;DHT22;16728;50.832;5.590;2023-05-10T06:19:36;13.90;99.90
29849;DHT22;16728;50.832;5.590;2023-05-10T06:22:38;13.90;99.90
29849;DHT22;16728;50.832;5.590;2023-05-10T06:25:41;13.90;99.90
29849;DHT22;16728;50.832;5.590;2023-05-10T06:28:43;13.90;99.90
29849;DHT22;16728;50.832;5.590;2023-05-10T06:31:46;13.90;99.90
29849;DHT22;16728;50.832;5.590;2023-05-10T06:34:48;13.90;99.90
29849;DHT22;16728;50.832;5.590;2023-05-10T06:37:53;13.90;99.90
29849;DHT22;16728;50.832;5.590;2023-05-10T06:40:55;13.90;99.90
29849;DHT22;16728;50.832;5.590;2023-05-10T06:43:57;13.90;99.90
29849;DHT22;16728;50.832;5.590;2023-05-10T06:46:59;13.90;99.90
29849;DHT22;16728;50.832;5.590;2023-05-10T06:50:01;14.00;99.90
29849;DHT22;16728;50.832;5.590;2023-05-10T06:53:03;14.00;99.90
29849;DHT22;16728;50.832;5.590;2023-05-10T06:56:06;14.00;99.90
29849;DHT22;16728;50.832;5.590;2023-05-10T06:59:08;14.00;99.90
29849;DHT22;16728;50.832;5.590;2023-05-10T07:02:11;14.00;99.90
29849;DHT22;16728;50.832;5.590;2023-05-10T07:05:14;14.00;99.90
29849;DHT22;16728;50.832;5.590;2023-05-10T07:08:18;14.00;99.90
29849;DHT22;16728;50.832;5.590;2023-05-10T07:11:20;14.00;99.90
29849;DHT22;16728;50.832;5.590;2023-05-10T07:14:23;14.00;99.90
29849;DHT22;16728;50.832;5.590;2023-05-10T07:17:25;14.00;99.90
29849;DHT22;16728;50.832;5.590;2023-05-10T07:20:27;14.00;99.90
29849;DHT22;16728;50.832;5.590;2023-05-10T07:23:29;14.00;99.90
29849;DHT22;16728;50.832;5.590;2023-05-10T07:26:32;13.90;99.90
29849;DHT22;16728;50.832;5.590;2023-05-10T07:29:35;13.90;99.90
29849;DHT22;16728;50.832;5.590;2023-05-10T07:32:37;13.90;99.90
29849;DHT22;16728;50.832;5.590;2023-05-10T07:35:39;13.80;99.90
29849;DHT22;16728;50.832;5.590;2023-05-10T07:38:42;13.70;99.90
29849;DHT22;16728;50.832;5.590;2023-05-10T07:41:44;13.70;99.90
29849;DHT22;16728;50.832;5.590;2023-05-10T07:44:47;13.70;99.90
29849;DHT22;16728;50.832;5.590;2023-05-10T07:47:49;13.60;99.90
29849;DHT22;16728;50.832;5.590;2023-05-10T07:50:51;13.60;99.90
29849;DHT22;16728;50.832;5.590;2023-05-10T07:53:53;13.50;99.90
29849;DHT22;16728;50.832;5.590;2023-05-10T07:57:00;13.50;99.90
29849;DHT22;16728;50.832;5.590;2023-05-10T08:00:02;13.50;99.90
29849;DHT22;16728;50.832;5.590;2023-05-10T08:03:05;13.50;99.90
29849;DHT22;16728;50.832;5.590;2023-05-10T08:06:09;13.50;99.90
29849;DHT22;16728;50.832;5.590;2023-05-10T08:09:11;13.40;99.90
29849;DHT22;16728;50.832;5.590;2023-05-10T08:12:13;13.40;99.90
29849;DHT22;16728;50.832;5.590;2023-05-10T08:15:16;13.40;99.90
29849;DHT22;16728;50.832;5.590;2023-05-10T08:18:19;13.40;99.90
29849;DHT22;16728;50.832;5.590;2023-05-10T08:21:22;13.40;99.90
29849;DHT22;16728;50.832;5.590;2023-05-10T08:24:24;13.40;99.90
29849;DHT22;16728;50.832;5.590;2023-05-10T08:27:26;13.40;99.90
29849;DHT22;16728;50.832;5.590;2023-05-10T08:30:28;13.50;99.90
29849;DHT22;16728;50.832;5.590;2023-05-10T08:33:30;13.50;99.90
29849;DHT22;16728;50.832;5.590;2023-05-10T08:36:31;13.50;99.90
29849;DHT22;16728;50.832;5.590;2023-05-10T08:39:35;13.50;99.90
29849;DHT22;16728;50.832;5.590;2023-05-10T08:42:40;13.50;99.90
29849;DHT22;16728;50.832;5.590;2023-05-10T08:45:53;13.50;99.90
29849;DHT22;16728;50.832;5.590;2023-05-10T08:48:56;13.60;99.90
29849;DHT22;16728;50.832;5.590;2023-05-10T08:52:03;13.70;99.90
29849;DHT22;16728;50.832;5.590;2023-05-10T08:55:07;13.70;99.90
29849;DHT22;16728;50.832;5.590;2023-05-10T08:58:09;13.70;99.90
29849;DHT22;16728;50.832;5.590;2023-05-10T09:01:12;13.80;99.90
29849;DHT22;16728;50.832;5.590;2023-05-10T09:04:21;13.80;99.90
29849;DHT22;16728;50.832;5.590;2023-05-10T09:07:23;13.80;99.90
29849;DHT22;16728;50.832;5.590;2023-05-10T09:10:26;13.90;99.90
29849;DHT22;16728;50.832;5.590;2023-05-10T09:13:32;14.00;99.90
29849;DHT22;16728;50.832;5.590;2023-05-10T09:16:40;14.00;99.90
29849;DHT22;16728;50.832;5.590;2023-05-10T09:19:45;14.10;99.90
29849;DHT22;16728;50.832;5.590;2023-05-10T09:22:53;14.20;99.90
29849;DHT22;16728;50.832;5.590;2023-05-10T09:26:17;14.30;99.90
29849;DHT22;16728;50.832;5.590;2023-05-10T09:29:23;14.30;99.90
29849;DHT22;16728;50.832;5.590;2023-05-10T09:32:47;14.40;99.90
29849;DHT22;16728;50.832;5.590;2023-05-10T09:35:49;14.50;99.90
29849;DHT22;16728;50.832;5.590;2023-05-10T09:38:56;14.50;99.90
29849;DHT22;16728;50.832;5.590;2023-05-10T09:42:09;14.50;99.90
29849;DHT22;16728;50.832;5.590;2023-05-10T09:45:11;14.50;99.90
29849;DHT22;16728;50.832;5.590;2023-05-10T09:48:15;14.60;99.90
29849;DHT22;16728;50.832;5.590;2023-05-10T09:51:43;14.60;99.90
29849;DHT22;16728;50.832;5.590;2023-05-10T09:54:53;14.70;99.90
29849;DHT22;16728;50.832;5.590;2023-05-10T09:58:00;14.70;99.90
29849;DHT22;16728;50.832;5.590;2023-05-10T10:01:02;14.60;99.90
29849;DHT22;16728;50.832;5.590;2023-05-10T10:04:05;14.70;99.90
29849;DHT22;16728;50.832;5.590;2023-05-10T10:07:09;14.80;99.90
29849;DHT22;16728;50.832;5.590;2023-05-10T10:10:34;14.80;99.90
29849;DHT22;16728;50.832;5.590;2023-05-10T10:13:38;14.80;99.90
29849;DHT22;16728;50.832;5.590;2023-05-10T10:16:40;14.80;99.90
29849;DHT22;16728;50.832;5.590;2023-05-10T10:20:00;14.80;99.90
29849;DHT22;16728;50.832;5.590;2023-05-10T10:23:19;14.90;99.90
29849;DHT22;16728;50.832;5.590;2023-05-10T10:26:22;14.90;99.90
29849;DHT22;16728;50.832;5.590;2023-05-10T10:29:39;14.90;99.90
29849;DHT22;16728;50.832;5.590;2023-05-10T10:35:52;14.90;99.90
29849;DHT22;16728;50.832;5.590;2023-05-10T10:38:59;14.90;99.90
29849;DHT22;16728;50.832;5.590;2023-05-10T10:42:03;14.90;99.90
29849;DHT22;16728;50.832;5.590;2023-05-10T10:45:11;14.90;99.90
29849;DHT22;16728;50.832;5.590;2023-05-10T10:48:21;14.90;99.90
29849;DHT22;16728;50.832;5.590;2023-05-10T10:51:24;14.90;99.90
29849;DHT22;16728;50.832;5.590;2023-05-10T10:54:29;14.90;99.90
29849;DHT22;16728;50.832;5.590;2023-05-10T10:57:55;14.90;99.90
29849;DHT22;16728;50.832;5.590;2023-05-10T11:01:16;15.00;99.90
29849;DHT22;16728;50.832;5.590;2023-05-10T11:04:19;15.00;99.90
29849;DHT22;16728;50.832;5.590;2023-05-10T11:07:26;14.90;99.90
29849;DHT22;16728;50.832;5.590;2023-05-10T11:10:28;14.90;99.90
29849;DHT22;16728;50.832;5.590;2023-05-10T11:13:40;15.00;99.90
29849;DHT22;16728;50.832;5.590;2023-05-10T11:16:52;15.00;99.90
29849;DHT22;16728;50.832;5.590;2023-05-10T11:20:10;15.00;99.90
29849;DHT22;16728;50.832;5.590;2023-05-10T11:23:16;15.00;99.90
29849;DHT22;16728;50.832;5.590;2023-05-10T11:26:19;15.00;99.90
29849;DHT22;16728;50.832;5.590;2023-05-10T11:29:28;14.90;99.90
29849;DHT22;16728;50.832;5.590;2023-05-10T11:32:30;14.90;99.90
29849;DHT22;16728;50.832;5.590;2023-05-10T11:35:41;15.00;99.90
29849;DHT22;16728;50.832;5.590;2023-05-10T11:38:45;15.10;99.90
29849;DHT22;16728;50.832;5.590;2023-05-10T11:41:50;15.10;99.90
29849;DHT22;16728;50.832;5.590;2023-05-10T11:44:52;15.10;99.90
29849;DHT22;16728;50.832;5.590;2023-05-10T11:47:55;15.10;99.90
29849;DHT22;16728;50.832;5.590;2023-05-10T11:50:58;15.20;99.90
29849;DHT22;16728;50.832;5.590;2023-05-10T11:54:07;15.20;99.90
29849;DHT22;16728;50.832;5.590;2023-05-10T11:57:11;15.20;99.90
29849;DHT22;16728;50.832;5.590;2023-05-10T12:00:14;15.30;99.90
29849;DHT22;16728;50.832;5.590;2023-05-10T12:03:17;15.40;99.90
29849;DHT22;16728;50.832;5.590;2023-05-10T12:06:27;15.40;99.90
29849;DHT22;16728;50.832;5.590;2023-05-10T12:09:29;15.40;99.90
29849;DHT22;16728;50.832;5.590;2023-05-10T12:12:47;15.50;99.90
29849;DHT22;16728;50.832;5.590;2023-05-10T12:15:50;15.60;99.90
29849;DHT22;16728;50.832;5.590;2023-05-10T12:18:57;15.60;99.90
29849;DHT22;16728;50.832;5.590;2023-05-10T12:21:59;15.60;99.90
29849;DHT22;16728;50.832;5.590;2023-05-10T12:25:02;15.70;99.90
29849;DHT22;16728;50.832;5.590;2023-05-10T12:28:06;15.70;99.90
29849;DHT22;16728;50.832;5.590;2023-05-10T12:31:13;15.80;99.90
29849;DHT22;16728;50.832;5.590;2023-05-10T12:34:31;15.80;99.90
29849;DHT22;16728;50.832;5.590;2023-05-10T12:37:35;15.70;99.90
29849;DHT22;16728;50.832;5.590;2023-05-10T12:40:40;15.70;99.90
29849;DHT22;16728;50.832;5.590;2023-05-10T12:43:42;15.70;99.90
29849;DHT22;16728;50.832;5.590;2023-05-10T12:46:44;15.70;99.90
29849;DHT22;16728;50.832;5.590;2023-05-10T12:49:46;15.80;99.90
29849;DHT22;16728;50.832;5.590;2023-05-10T12:52:48;15.80;99.90
29849;DHT22;16728;50.832;5.590;2023-05-10T12:55:50;15.80;99.90
29849;DHT22;16728;50.832;5.590;2023-05-10T12:58:52;15.80;99.90
29849;DHT22;16728;50.832;5.590;2023-05-10T13:01:54;15.80;99.90
29849;DHT22;16728;50.832;5.590;2023-05-10T13:04:56;15.80;99.90
29849;DHT22;16728;50.832;5.590;2023-05-10T13:07:58;15.80;99.90
29849;DHT22;16728;50.832;5.590;2023-05-10T13:11:01;15.80;99.90
29849;DHT22;16728;50.832;5.590;2023-05-10T13:14:03;15.90;99.90
29849;DHT22;16728;50.832;5.590;2023-05-10T13:17:05;16.00;99.90
29849;DHT22;16728;50.832;5.590;2023-05-10T13:20:08;16.10;99.90
29849;DHT22;16728;50.832;5.590;2023-05-10T13:23:11;16.00;99.90
29849;DHT22;16728;50.832;5.590;2023-05-10T13:26:13;15.90;99.90
29849;DHT22;16728;50.832;5.590;2023-05-10T13:29:15;15.90;99.90
29849;DHT22;16728;50.832;5.590;2023-05-10T13:32:20;15.90;99.90
29849;DHT22;16728;50.832;5.590;2023-05-10T13:35:22;15.90;99.90
29849;DHT22;16728;50.832;5.590;2023-05-10T13:38:24;15.90;99.90
29849;DHT22;16728;50.832;5.590;2023-05-10T13:41:26;15.80;99.90
29849;DHT22;16728;50.832;5.590;2023-05-10T13:44:28;15.90;99.90
29849;DHT22;16728;50.832;5.590;2023-05-10T13:47:30;15.80;99.90
29849;DHT22;16728;50.832;5.590;2023-05-10T13:50:32;15.90;99.90
29849;DHT22;16728;50.832;5.590;2023-05-10T13:53:34;15.80;99.90
29849;DHT22;16728;50.832;5.590;2023-05-10T13:56:37;15.80;99.90
29849;DHT22;16728;50.832;5.590;2023-05-10T13:59:48;15.80;99.90
29849;DHT22;16728;50.832;5.590;2023-05-10T14:02:50;15.80;99.90
29849;DHT22;16728;50.832;5.590;2023-05-10T14:05:53;15.80;99.90
29849;DHT22;16728;50.832;5.590;2023-05-10T14:08:55;15.90;99.90
29849;DHT22;16728;50.832;5.590;2023-05-10T14:11:56;15.90;99.90
29849;DHT22;16728;50.832;5.590;2023-05-10T14:15:03;15.90;99.90
29849;DHT22;16728;50.832;5.590;2023-05-10T14:18:08;15.80;99.90
29849;DHT22;16728;50.832;5.590;2023-05-10T14:21:10;15.80;99.90
29849;DHT22;16728;50.832;5.590;2023-05-10T14:24:12;15.90;99.90
29849;DHT22;16728;50.832;5.590;2023-05-10T14:27:14;15.90;99.90
29849;DHT22;16728;50.832;5.590;2023-05-10T14:30:16;16.00;99.90
29849;DHT22;16728;50.832;5.590;2023-05-10T14:33:27;16.00;99.90
29849;DHT22;16728;50.832;5.590;2023-05-10T14:36:29;16.00;99.90
29849;DHT22;16728;50.832;5.590;2023-05-10T14:39:31;16.00;99.90
29849;DHT22;16728;50.832;5.590;2023-05-10T14:42:34;16.10;99.90
29849;DHT22;16728;50.832;5.590;2023-05-10T14:45:37;16.10;99.90
29849;DHT22;16728;50.832;5.590;2023-05-10T14:48:39;16.20;99.90
29849;DHT22;16728;50.832;5.590;2023-05-10T14:51:44;16.10;99.90
29849;DHT22;16728;50.832;5.590;2023-05-10T14:54:47;16.10;99.90
29849;DHT22;16728;50.832;5.590;2023-05-10T14:57:49;16.20;99.90
29849;DHT22;16728;50.832;5.590;2023-05-10T15:00:52;16.20;99.90
29849;DHT22;16728;50.832;5.590;2023-05-10T15:04:05;16.20;99.90
29849;DHT22;16728;50.832;5.590;2023-05-10T15:07:07;16.20;99.90
29849;DHT22;16728;50.832;5.590;2023-05-10T15:10:10;16.20;99.90
29849;DHT22;16728;50.832;5.590;2023-05-10T15:13:12;16.20;99.90
29849;DHT22;16728;50.832;5.590;2023-05-10T15:16:29;16.30;99.90
29849;DHT22;16728;50.832;5.590;2023-05-10T15:19:34;16.20;99.90
29849;DHT22;16728;50.832;5.590;2023-05-10T15:22:37;16.20;99.90
29849;DHT22;16728;50.832;5.590;2023-05-10T15:25:39;16.20;99.90
29849;DHT22;16728;50.832;5.590;2023-05-10T15:28:43;16.10;99.90
29849;DHT22;16728;50.832;5.590;2023-05-10T15:31:49;16.10;99.90
29849;DHT22;16728;50.832;5.590;2023-05-10T15:34:51;16.10;99.90
29849;DHT22;16728;50.832;5.590;2023-05-10T15:37:53;16.10;99.90
29849;DHT22;16728;50.832;5.590;2023-05-10T15:40:58;16.10;99.90
29849;DHT22;16728;50.832;5.590;2023-05-10T15:43:59;16.10;99.90
29849;DHT22;16728;50.832;5.590;2023-05-10T15:47:02;16.20;99.90
29849;DHT22;16728;50.832;5.590;2023-05-10T15:50:06;16.20;99.90
29849;DHT22;16728;50.832;5.590;2023-05-10T15:53:08;16.20;99.90
29849;DHT22;16728;50.832;5.590;2023-05-10T15:56:10;16.20;99.90
29849;DHT22;16728;50.832;5.590;2023-05-10T15:59:15;16.10;99.90
29849;DHT22;16728;50.832;5.590;2023-05-10T16:02:17;16.20;99.90
29849;DHT22;16728;50.832;5.590;2023-05-10T16:05:20;16.10;99.90
29849;DHT22;16728;50.832;5.590;2023-05-10T16:08:22;16.10;99.90
29849;DHT22;16728;50.832;5.590;2023-05-10T16:11:24;16.10;99.90
29849;DHT22;16728;50.832;5.590;2023-05-10T16:14:26;16.10;99.90
29849;DHT22;16728;50.832;5.590;2023-05-10T16:17:29;16.00;99.90
29849;DHT22;16728;50.832;5.590;2023-05-10T16:20:32;15.90;99.90
29849;DHT22;16728;50.832;5.590;2023-05-10T16:23:38;15.90;99.90
29849;DHT22;16728;50.832;5.590;2023-05-10T16:26:40;15.90;99.90
29849;DHT22;16728;50.832;5.590;2023-05-10T16:29:43;15.80;99.90
29849;DHT22;16728;50.832;5.590;2023-05-10T16:32:45;15.70;99.90
29849;DHT22;16728;50.832;5.590;2023-05-10T16:35:47;15.80;99.90
29849;DHT22;16728;50.832;5.590;2023-05-10T16:38:49;15.80;99.90
29849;DHT22;16728;50.832;5.590;2023-05-10T16:41:52;15.80;99.90
29849;DHT22;16728;50.832;5.590;2023-05-10T16:44:53;15.80;99.90
29849;DHT22;16728;50.832;5.590;2023-05-10T16:47:56;15.80;99.90
29849;DHT22;16728;50.832;5.590;2023-05-10T16:50:58;15.80;99.90
29849;DHT22;16728;50.832;5.590;2023-05-10T16:54:02;15.90;99.90
29849;DHT22;16728;50.832;5.590;2023-05-10T16:57:04;15.90;99.90
29849;DHT22;16728;50.832;5.590;2023-05-10T17:00:07;15.90;99.90
29849;DHT22;16728;50.832;5.590;2023-05-10T17:03:09;15.90;99.90
29849;DHT22;16728;50.832;5.590;2023-05-10T17:06:15;15.90;99.90
29849;DHT22;16728;50.832;5.590;2023-05-10T17:09:17;15.80;99.90
29849;DHT22;16728;50.832;5.590;2023-05-10T17:12:22;15.70;99.90
29849;DHT22;16728;50.832;5.590;2023-05-10T17:15:24;15.80;99.90
29849;DHT22;16728;50.832;5.590;2023-05-10T17:18:27;15.80;99.90
29849;DHT22;16728;50.832;5.590;2023-05-10T17:21:28;15.80;99.90
29849;DHT22;16728;50.832;5.590;2023-05-10T17:24:30;15.80;99.90
29849;DHT22;16728;50.832;5.590;2023-05-10T17:27:33;15.80;99.90
29849;DHT22;16728;50.832;5.590;2023-05-10T17:30:35;15.80;99.90
29849;DHT22;16728;50.832;5.590;2023-05-10T17:33:37;15.70;99.90
29849;DHT22;16728;50.832;5.590;2023-05-10T17:36:39;15.70;99.90
29849;DHT22;16728;50.832;5.590;2023-05-10T17:39:41;15.70;99.90
29849;DHT22;16728;50.832;5.590;2023-05-10T17:42:44;15.70;99.90
29849;DHT22;16728;50.832;5.590;2023-05-10T17:45:48;15.60;99.90
29849;DHT22;16728;50.832;5.590;2023-05-10T17:48:50;15.60;99.90
29849;DHT22;16728;50.832;5.590;2023-05-10T17:51:52;15.60;99.90
29849;DHT22;16728;50.832;5.590;2023-05-10T17:54:54;15.60;99.90
29849;DHT22;16728;50.832;5.590;2023-05-10T17:57:57;15.60;99.90
29849;DHT22;16728;50.832;5.590;2023-05-10T18:01:01;15.60;99.90
29849;DHT22;16728;50.832;5.590;2023-05-10T18:04:03;15.50;99.90
29849;DHT22;16728;50.832;5.590;2023-05-10T18:07:11;15.60;99.90
29849;DHT22;16728;50.832;5.590;2023-05-10T18:10:13;15.40;99.90
29849;DHT22;16728;50.832;5.590;2023-05-10T18:13:15;15.40;99.90
29849;DHT22;16728;50.832;5.590;2023-05-10T18:16:25;15.30;99.90
29849;DHT22;16728;50.832;5.590;2023-05-10T18:19:30;15.30;99.90
29849;DHT22;16728;50.832;5.590;2023-05-10T18:22:32;15.30;99.90
29849;DHT22;16728;50.832;5.590;2023-05-10T18:25:34;15.30;99.90
29849;DHT22;16728;50.832;5.590;2023-05-10T18:28:36;15.20;99.90
29849;DHT22;16728;50.832;5.590;2023-05-10T18:31:38;15.20;99.90
29849;DHT22;16728;50.832;5.590;2023-05-10T18:34:40;14.90;99.90
29849;DHT22;16728;50.832;5.590;2023-05-10T18:37:43;14.90;99.90
29849;DHT22;16728;50.832;5.590;2023-05-10T18:40:45;14.90;99.90
29849;DHT22;16728;50.832;5.590;2023-05-10T18:43:48;14.70;99.90
29849;DHT22;16728;50.832;5.590;2023-05-10T18:46:50;14.60;99.90
29849;DHT22;16728;50.832;5.590;2023-05-10T18:50:02;14.60;99.90
29849;DHT22;16728;50.832;5.590;2023-05-10T18:53:05;14.50;99.90
29849;DHT22;16728;50.832;5.590;2023-05-10T18:56:07;14.50;99.90
29849;DHT22;16728;50.832;5.590;2023-05-10T18:59:09;14.60;99.90
29849;DHT22;16728;50.832;5.590;2023-05-10T19:02:12;14.60;99.90
29849;DHT22;16728;50.832;5.590;2023-05-10T19:05:14;14.50;99.90
29849;DHT22;16728;50.832;5.590;2023-05-10T19:08:22;14.50;99.90
29849;DHT22;16728;50.832;5.590;2023-05-10T19:11:24;14.50;99.90
29849;DHT22;16728;50.832;5.590;2023-05-10T19:14:26;14.50;99.90
29849;DHT22;16728;50.832;5.590;2023-05-10T19:17:28;14.50;99.90
29849;DHT22;16728;50.832;5.590;2023-05-10T19:20:37;14.50;99.90
29849;DHT22;16728;50.832;5.590;2023-05-10T19:23:42;14.50;99.90
29849;DHT22;16728;50.832;5.590;2023-05-10T19:26:46;14.60;99.90
29849;DHT22;16728;50.832;5.590;2023-05-10T19:29:49;14.60;99.90
29849;DHT22;16728;50.832;5.590;2023-05-10T19:32:52;14.50;99.90
29849;DHT22;16728;50.832;5.590;2023-05-10T19:35:55;14.50;99.90
29849;DHT22;16728;50.832;5.590;2023-05-10T19:38:57;14.50;99.90